createdAt,value
2019-01-18T00:00:46.872Z,60.40
2019-01-18T00:03:17.017Z,61.10
2019-01-18T00:05:47.188Z,61.70
2019-01-18T00:08:17.340Z,61.90
2019-01-18T00:10:47.569Z,61.20
2019-01-18T00:13:17.705Z,61.10
2019-01-18T00:15:47.927Z,60.40
2019-01-18T00:18:18.095Z,61.70
2019-01-18T00:20:48.262Z,63.30
2019-01-18T00:23:18.394Z,63.40
2019-01-18T00:25:48.607Z,63.10
2019-01-18T00:28:19.154Z,62.40
2019-01-18T00:30:49.271Z,60.50
2019-01-18T00:33:19.413Z,59.60
2019-01-18T00:35:49.821Z,60.10
2019-01-18T00:38:20.044Z,59.40
2019-01-18T00:40:50.192Z,60.50
2019-01-18T00:43:20.321Z,60.00
2019-01-18T00:45:50.475Z,60.50
2019-01-18T00:48:20.629Z,59.70
2019-01-18T00:50:50.770Z,59.70
2019-01-18T00:53:20.915Z,60.20
2019-01-18T00:55:51.076Z,60.60
2019-01-18T00:58:21.209Z,61.00
2019-01-18T01:00:51.486Z,61.60
2019-01-18T01:03:21.607Z,62.30
2019-01-18T01:05:51.841Z,63.20
2019-01-18T01:08:21.999Z,64.30
2019-01-18T01:10:52.119Z,64.50
2019-01-18T01:13:22.701Z,63.70
2019-01-18T01:15:53.096Z,63.20
2019-01-18T01:18:23.242Z,63.60
2019-01-18T01:20:53.402Z,64.60
2019-01-18T01:23:23.539Z,64.50
2019-01-18T01:25:53.717Z,64.40
2019-01-18T01:28:23.858Z,64.40
2019-01-18T01:30:53.987Z,63.90
2019-01-18T01:33:24.154Z,64.70
2019-01-18T01:35:54.309Z,62.60
2019-01-18T01:38:24.444Z,61.60
2019-01-18T01:40:54.611Z,61.70
2019-01-18T01:43:24.729Z,61.40
2019-01-18T01:45:54.892Z,61.90
2019-01-18T01:48:25.042Z,61.90
2019-01-18T01:50:55.251Z,62.10
2019-01-18T01:53:25.391Z,62.40
2019-01-18T01:55:55.562Z,63.10
2019-01-18T01:58:25.688Z,63.20
2019-01-18T02:00:55.890Z,63.80
2019-01-18T02:03:26.105Z,64.80
2019-01-18T02:05:56.243Z,64.90
2019-01-18T02:08:26.448Z,63.30
2019-01-18T02:10:56.580Z,64.70
2019-01-18T02:13:26.765Z,65.90
2019-01-18T02:15:56.890Z,66.60
2019-01-18T02:18:27.050Z,67.30
2019-01-18T02:20:57.242Z,68.70
2019-01-18T02:23:27.397Z,68.20
2019-01-18T02:25:57.557Z,67.40
2019-01-18T02:28:27.737Z,67.50
2019-01-18T02:30:57.873Z,67.60
2019-01-18T02:33:28.093Z,68.50
2019-01-18T02:35:58.238Z,68.00
2019-01-18T02:38:28.357Z,67.10
2019-01-18T02:40:58.648Z,68.20
2019-01-18T02:43:28.843Z,68.20
2019-01-18T02:45:58.962Z,67.00
2019-01-18T02:48:29.128Z,66.90
2019-01-18T02:50:59.262Z,68.70
2019-01-18T02:53:29.446Z,65.30
2019-01-18T02:55:59.872Z,64.90
2019-01-18T02:58:30.058Z,64.80
2019-01-18T03:01:00.190Z,62.20
2019-01-18T03:03:30.345Z,61.80
2019-01-18T03:06:00.501Z,62.40
2019-01-18T03:08:30.664Z,64.30
2019-01-18T03:11:00.946Z,65.30
2019-01-18T03:13:31.118Z,63.70
2019-01-18T03:16:01.267Z,64.00
2019-01-18T03:18:31.421Z,64.50
2019-01-18T03:21:01.582Z,66.50
2019-01-18T03:23:31.713Z,67.60
2019-01-18T03:26:01.977Z,68.70
2019-01-18T03:28:32.187Z,69.00
2019-01-18T03:31:02.354Z,69.00
2019-01-18T03:33:32.554Z,69.40
2019-01-18T03:36:02.777Z,68.20
2019-01-18T03:38:32.921Z,68.80
2019-01-18T03:41:03.086Z,67.80
2019-01-18T03:43:33.253Z,66.60
2019-01-18T03:46:03.461Z,64.80
2019-01-18T03:48:33.626Z,66.70
2019-01-18T03:51:03.814Z,65.50
2019-01-18T03:53:33.944Z,63.30
2019-01-18T03:56:04.080Z,62.20
2019-01-18T03:58:34.255Z,62.90
2019-01-18T04:01:04.362Z,62.10
2019-01-18T04:03:34.507Z,63.00
2019-01-18T04:06:04.783Z,64.00
2019-01-18T04:08:34.980Z,64.30
2019-01-18T04:11:05.298Z,63.30
2019-01-18T04:13:35.466Z,64.30
2019-01-18T04:16:05.692Z,64.60
2019-01-18T04:18:35.821Z,65.20
2019-01-18T04:21:05.986Z,65.20
2019-01-18T04:23:36.127Z,65.80
2019-01-18T04:26:06.263Z,65.80
2019-01-18T04:28:36.444Z,66.10
2019-01-18T04:31:06.607Z,65.60
2019-01-18T04:33:36.735Z,64.40
2019-01-18T04:36:06.929Z,64.40
2019-01-18T04:38:37.198Z,64.40
2019-01-18T04:41:07.312Z,65.80
2019-01-18T04:43:37.530Z,65.80
2019-01-18T04:46:07.761Z,66.00
2019-01-18T04:48:37.903Z,65.60
2019-01-18T04:51:08.096Z,66.90
2019-01-18T04:53:38.248Z,66.80
2019-01-18T04:56:08.736Z,66.80
2019-01-18T04:58:38.907Z,68.00
2019-01-18T05:01:09.084Z,67.10
2019-01-18T05:03:39.234Z,65.00
2019-01-18T05:06:09.393Z,68.40
2019-01-18T05:08:39.596Z,69.00
2019-01-18T05:11:09.723Z,68.50
2019-01-18T05:13:39.924Z,70.10
2019-01-18T05:16:11.067Z,70.00
2019-01-18T05:18:41.236Z,70.50
2019-01-18T05:21:11.411Z,71.00
2019-01-18T05:23:41.579Z,70.30
2019-01-18T05:26:11.722Z,70.60
2019-01-18T05:28:41.895Z,71.10
2019-01-18T05:31:12.095Z,70.90
2019-01-18T05:33:42.343Z,70.70
2019-01-18T05:36:12.566Z,70.80
2019-01-18T05:38:42.761Z,70.80
2019-01-18T05:41:12.897Z,71.90
2019-01-18T05:43:43.049Z,71.40
2019-01-18T05:46:14.106Z,70.40
2019-01-18T05:48:44.224Z,70.30
2019-01-18T05:51:14.389Z,69.00
2019-01-18T05:53:44.659Z,68.30
2019-01-18T05:56:14.854Z,68.80
2019-01-18T05:58:47.675Z,68.70
2019-01-18T06:01:17.848Z,68.20
2019-01-18T06:03:48.008Z,67.70
2019-01-18T06:06:18.130Z,68.50
2019-01-18T06:08:48.388Z,66.80
2019-01-18T06:11:18.613Z,67.80
2019-01-18T06:13:48.770Z,64.60
2019-01-18T06:16:18.963Z,64.50
2019-01-18T06:18:49.112Z,63.40
2019-01-18T06:21:19.296Z,64.40
2019-01-18T06:23:49.467Z,63.80
2019-01-18T06:26:19.642Z,63.50
2019-01-18T06:28:49.858Z,64.60
2019-01-18T06:31:20.011Z,64.40
2019-01-18T06:33:50.178Z,64.10
2019-01-18T06:36:20.332Z,64.90
2019-01-18T06:38:50.567Z,65.60
2019-01-18T06:41:22.371Z,66.70
2019-01-18T06:43:52.916Z,67.20
2019-01-18T06:46:23.106Z,67.10
2019-01-18T06:48:54.405Z,67.70
2019-01-18T06:51:24.558Z,68.10
2019-01-18T06:53:54.693Z,69.10
2019-01-18T06:56:24.853Z,69.30
2019-01-18T06:58:54.993Z,68.70
2019-01-18T07:01:25.164Z,69.00
2019-01-18T07:03:55.293Z,68.10
2019-01-18T07:06:25.480Z,68.50
2019-01-18T07:08:55.634Z,68.20
2019-01-18T07:11:25.827Z,68.00
2019-01-18T07:13:56.069Z,69.00
2019-01-18T07:16:26.294Z,69.00
2019-01-18T07:18:56.432Z,69.70
2019-01-18T07:21:26.597Z,70.00
2019-01-18T07:23:56.757Z,70.40
2019-01-18T07:26:26.959Z,70.80
2019-01-18T07:28:57.119Z,71.70
2019-01-18T07:31:27.294Z,73.10
2019-01-18T07:33:57.438Z,72.10
2019-01-18T07:36:27.767Z,72.30
2019-01-18T07:39:00.611Z,73.10
2019-01-18T07:41:30.033Z,73.10
2019-01-18T07:44:00.234Z,73.60
2019-01-18T07:46:30.367Z,74.00
2019-01-18T07:49:00.508Z,73.20
2019-01-18T07:51:30.697Z,72.80
2019-01-18T07:54:00.828Z,73.30
2019-01-18T07:56:30.982Z,73.40
2019-01-18T07:59:01.158Z,73.50
2019-01-18T08:01:31.301Z,74.70
2019-01-18T08:04:01.481Z,75.20
2019-01-18T08:06:31.658Z,75.30
2019-01-18T08:09:01.812Z,75.50
2019-01-18T08:11:31.994Z,74.30
2019-01-18T08:14:02.153Z,73.70
2019-01-18T08:16:32.296Z,70.90
2019-01-18T08:19:02.459Z,69.50
2019-01-18T08:21:32.625Z,66.50
2019-01-18T08:24:02.780Z,63.90
2019-01-18T08:26:32.962Z,58.80
2019-01-18T08:29:03.129Z,57.30
2019-01-18T08:31:33.318Z,55.60
2019-01-18T08:34:03.470Z,54.90
2019-01-18T08:36:33.649Z,55.60
2019-01-18T08:39:07.025Z,52.40
2019-01-18T08:41:37.238Z,50.00
2019-01-18T08:44:07.392Z,48.70
2019-01-18T08:46:38.303Z,47.50
2019-01-18T08:49:08.526Z,46.40
2019-01-18T08:51:38.687Z,46.80
2019-01-18T08:54:08.827Z,48.00
2019-01-18T08:56:38.968Z,47.60
2019-01-18T08:59:09.137Z,45.90
2019-01-18T09:01:39.302Z,46.10
2019-01-18T09:04:09.541Z,46.60
2019-01-18T09:06:39.693Z,47.10
2019-01-18T09:09:09.821Z,47.80
2019-01-18T09:11:39.969Z,48.10
2019-01-18T09:14:10.149Z,46.50
2019-01-18T09:16:40.390Z,45.60
2019-01-18T09:19:10.531Z,44.30
2019-01-18T09:21:40.858Z,42.30
2019-01-18T09:24:11.010Z,43.00
2019-01-18T09:26:41.139Z,43.70
2019-01-18T09:29:11.318Z,42.60
2019-01-18T09:31:42.537Z,43.70
2019-01-18T09:34:12.874Z,43.20
2019-01-18T09:36:45.470Z,41.80
2019-01-18T09:39:15.608Z,42.10
2019-01-18T09:41:45.761Z,43.00
2019-01-18T09:44:15.916Z,41.30
2019-01-18T09:46:46.055Z,41.70
2019-01-18T09:49:16.232Z,40.00
2019-01-18T09:51:46.375Z,38.10
2019-01-18T09:54:16.515Z,39.70
2019-01-18T09:56:46.787Z,39.10
2019-01-18T09:59:16.956Z,40.50
2019-01-18T10:01:49.405Z,40.20
2019-01-18T10:04:19.246Z,39.60
2019-01-18T10:06:49.545Z,38.30
2019-01-18T10:09:19.664Z,37.70
2019-01-18T10:11:49.820Z,37.90
2019-01-18T10:14:19.952Z,36.40
2019-01-18T10:16:50.095Z,36.40
2019-01-18T10:19:20.256Z,36.20
2019-01-18T10:21:50.407Z,36.30
2019-01-18T10:24:21.125Z,35.40
2019-01-18T10:26:51.374Z,35.60
2019-01-18T10:29:28.014Z,34.50
2019-01-18T10:31:56.201Z,36.50
2019-01-18T10:34:25.514Z,38.90
2019-01-18T10:37:04.029Z,39.60
2019-01-18T10:39:34.406Z,38.60
2019-01-18T10:42:07.849Z,36.10
2019-01-18T10:44:38.032Z,36.10
2019-01-18T10:47:08.171Z,36.90
2019-01-18T10:49:38.355Z,33.80
2019-01-18T10:52:08.559Z,32.20
2019-01-18T10:54:38.705Z,32.00
2019-01-18T10:57:08.866Z,32.50
2019-01-18T10:59:39.384Z,32.30
2019-01-18T11:02:09.568Z,30.80
2019-01-18T11:04:39.952Z,30.60
2019-01-18T11:07:10.151Z,31.60
2019-01-18T11:09:40.353Z,30.50
2019-01-18T11:12:10.511Z,29.60
2019-01-18T11:14:40.667Z,29.50
2019-01-18T11:17:10.811Z,30.90
2019-01-18T11:19:40.998Z,29.40
2019-01-18T11:22:11.213Z,29.70
2019-01-18T11:24:41.437Z,28.90
2019-01-18T11:27:11.604Z,26.50
2019-01-18T11:29:41.782Z,26.70
2019-01-18T11:32:13.876Z,29.60
2019-01-18T11:34:43.922Z,31.70
2019-01-18T11:37:14.088Z,33.30
2019-01-18T11:39:44.242Z,35.80
2019-01-18T11:42:14.414Z,36.40
2019-01-18T11:44:44.544Z,37.50
2019-01-18T11:47:14.698Z,38.10
2019-01-18T11:49:44.925Z,39.60
2019-01-18T11:52:15.026Z,40.10
2019-01-18T11:54:46.024Z,40.90
2019-01-18T11:57:16.086Z,41.40
2019-01-18T11:59:49.074Z,42.10
2019-01-18T12:02:22.050Z,40.50
2019-01-18T12:04:49.982Z,38.60
2019-01-18T12:07:20.113Z,39.40
2019-01-18T12:09:50.252Z,41.10
2019-01-18T12:12:20.412Z,41.70
2019-01-18T12:14:50.574Z,41.00
2019-01-18T12:17:20.949Z,41.00
2019-01-18T12:19:51.115Z,38.50
2019-01-18T12:22:21.717Z,37.70
2019-01-18T12:24:51.857Z,32.10
2019-01-18T12:27:22.033Z,32.10
2019-01-18T12:29:52.242Z,31.60
2019-01-18T12:32:28.605Z,31.10
2019-01-18T12:34:54.312Z,30.60
2019-01-18T12:37:24.444Z,32.00
2019-01-18T12:39:54.579Z,33.60
2019-01-18T12:42:24.819Z,35.20
2019-01-18T12:44:54.945Z,36.60
2019-01-18T12:47:25.119Z,37.10
2019-01-18T12:49:55.261Z,36.50
2019-01-18T12:52:25.471Z,35.40
2019-01-18T12:54:56.199Z,34.90
2019-01-18T12:57:26.412Z,35.10
2019-01-18T12:59:56.561Z,35.10
2019-01-18T13:02:26.729Z,34.70
2019-01-18T13:04:57.002Z,35.70
2019-01-18T13:07:27.218Z,35.20
2019-01-18T13:09:57.384Z,36.30
2019-01-18T13:12:27.854Z,36.40
2019-01-18T13:14:57.994Z,34.70
2019-01-18T13:17:28.179Z,35.10
2019-01-18T13:19:58.319Z,37.00
2019-01-18T13:22:28.525Z,36.30
2019-01-18T13:24:58.700Z,34.40
2019-01-18T13:27:28.953Z,35.40
2019-01-18T13:29:59.074Z,34.10
2019-01-18T13:32:29.233Z,34.30
2019-01-18T13:34:59.354Z,34.60
2019-01-18T13:37:29.783Z,30.30
2019-01-18T13:39:59.906Z,30.30
2019-01-18T13:42:30.051Z,32.00
2019-01-18T13:45:00.205Z,32.50
2019-01-18T13:47:30.539Z,34.10
2019-01-18T13:50:00.679Z,34.40
2019-01-18T13:52:30.861Z,34.30
2019-01-18T13:55:01.006Z,35.20
2019-01-18T13:57:31.182Z,35.00
2019-01-18T14:00:01.350Z,34.80
2019-01-18T14:02:31.527Z,34.60
2019-01-18T14:05:01.723Z,35.30
2019-01-18T14:07:31.911Z,34.60
2019-01-18T14:10:02.133Z,35.50
2019-01-18T14:12:32.306Z,35.20
2019-01-18T14:15:02.560Z,34.50
2019-01-18T14:17:32.726Z,35.80
2019-01-18T14:20:03.375Z,36.10
2019-01-18T14:22:33.503Z,36.80
2019-01-18T14:25:04.023Z,37.50
2019-01-18T14:27:34.260Z,38.30
2019-01-18T14:30:13.754Z,39.40
2019-01-18T14:32:43.926Z,41.00
2019-01-18T14:35:14.258Z,41.00
2019-01-18T14:37:44.399Z,41.50
2019-01-18T14:40:19.694Z,41.90
2019-01-18T14:42:51.963Z,41.50
2019-01-18T14:45:32.444Z,41.80
2019-01-18T14:48:02.591Z,42.50
2019-01-18T14:50:32.804Z,44.80
2019-01-18T14:53:03.269Z,45.10
2019-01-18T14:55:34.170Z,44.20
2019-01-18T14:58:07.040Z,44.20
2019-01-18T15:00:38.893Z,45.40
2019-01-18T15:03:09.286Z,46.50
2019-01-18T15:05:39.443Z,46.30
2019-01-18T15:08:09.647Z,47.10
2019-01-18T15:10:39.849Z,47.00
2019-01-18T15:13:13.515Z,47.40
2019-01-18T15:15:43.682Z,47.80
2019-01-18T15:18:14.224Z,47.20
2019-01-18T15:20:44.612Z,47.80
2019-01-18T15:23:14.996Z,48.20
2019-01-18T15:25:45.411Z,48.30
2019-01-18T15:28:17.132Z,48.20
2019-01-18T15:30:47.276Z,46.60
2019-01-18T15:33:17.472Z,47.00
2019-01-18T15:35:47.671Z,47.90
2019-01-18T15:38:17.860Z,47.80
2019-01-18T15:40:49.498Z,47.60
2019-01-18T15:43:20.382Z,48.20
2019-01-18T15:45:50.533Z,48.00
2019-01-18T15:48:20.773Z,48.20
2019-01-18T15:50:50.948Z,49.70
2019-01-18T15:53:21.090Z,50.20
2019-01-18T15:55:51.330Z,49.80
2019-01-18T15:58:24.090Z,50.50
2019-01-18T16:00:54.255Z,50.20
2019-01-18T16:03:24.443Z,51.00
2019-01-18T16:05:54.612Z,51.00
2019-01-18T16:08:24.866Z,50.70
2019-01-18T16:10:54.973Z,52.00
2019-01-18T16:13:25.195Z,52.10
2019-01-18T16:16:02.650Z,52.20
2019-01-18T16:18:32.785Z,51.90
2019-01-18T16:21:02.950Z,51.10
2019-01-18T16:23:33.092Z,52.30
2019-01-18T16:26:03.262Z,52.80
2019-01-18T16:28:33.471Z,53.10
2019-01-18T16:31:03.696Z,53.70
2019-01-18T16:33:33.876Z,53.90
2019-01-18T16:36:04.029Z,54.00
2019-01-18T16:38:34.200Z,54.50
2019-01-18T16:41:04.398Z,54.30
2019-01-18T16:43:35.579Z,53.80
2019-01-18T16:46:05.979Z,54.60
2019-01-18T16:48:36.250Z,55.70
2019-01-18T16:51:06.463Z,55.90
2019-01-18T16:53:36.630Z,55.80
2019-01-18T16:56:06.986Z,55.80
2019-01-18T16:58:37.176Z,57.30
2019-01-18T17:01:07.387Z,56.90
2019-01-18T17:03:37.527Z,57.70
2019-01-18T17:06:07.692Z,58.00
2019-01-18T17:08:37.880Z,58.70
2019-01-18T17:11:08.041Z,58.00
2019-01-18T17:13:38.174Z,57.80
2019-01-18T17:16:08.378Z,59.20
2019-01-18T17:18:38.799Z,60.40
2019-01-18T17:21:09.395Z,59.60
2019-01-18T17:23:39.567Z,60.40
2019-01-18T17:26:09.705Z,60.50
2019-01-18T17:28:39.866Z,61.80
2019-01-18T17:31:10.009Z,61.60
2019-01-18T17:33:40.175Z,62.10
2019-01-18T17:36:17.885Z,62.80
2019-01-18T17:39:10.740Z,63.20
2019-01-18T17:41:51.149Z,64.70
2019-01-18T17:44:31.408Z,65.00
2019-01-18T17:47:11.819Z,65.60
2019-01-18T17:49:52.519Z,66.30
2019-01-18T17:52:56.170Z,66.70
2019-01-18T17:55:36.869Z,67.80
2019-01-18T17:58:20.318Z,67.80
2019-01-18T18:01:14.682Z,68.80
2019-01-18T18:08:25.375Z,70.20
2019-01-18T18:11:21.158Z,69.10
2019-01-18T18:14:12.589Z,68.90
2019-01-18T18:17:19.088Z,69.20
2019-01-18T18:19:59.279Z,69.90
2019-01-18T18:23:11.755Z,70.30
2019-01-18T18:25:49.482Z,69.90
2019-01-18T18:28:39.253Z,70.00
2019-01-18T18:31:38.721Z,69.50
2019-01-18T18:34:37.721Z,69.70
2019-01-18T18:37:20.698Z,69.80
2019-01-18T18:40:21.347Z,69.40
2019-01-18T18:43:14.125Z,70.10
2019-01-18T18:45:51.693Z,70.30
2019-01-18T18:48:55.105Z,70.30
2019-01-18T18:51:44.479Z,70.10
2019-01-18T18:54:46.824Z,70.30
2019-01-18T18:57:27.354Z,70.40
2019-01-18T19:00:33.923Z,70.20
2019-01-18T19:03:11.355Z,70.30
2019-01-18T19:06:08.439Z,70.50
2019-01-18T19:08:46.010Z,70.30
2019-01-18T19:11:49.116Z,69.60
2019-01-18T19:14:57.034Z,70.40
2019-01-18T19:17:43.858Z,70.70
2019-01-18T19:20:30.597Z,71.10
2019-01-18T19:23:28.050Z,71.70
2019-01-18T19:26:22.397Z,72.00
2019-01-18T19:29:15.172Z,72.80
2019-01-18T19:32:11.354Z,72.50
2019-01-18T19:35:01.380Z,72.40
2019-01-18T19:38:18.778Z,72.90
2019-01-18T19:41:02.590Z,72.80
2019-01-18T19:43:49.672Z,73.40
2019-01-18T19:47:01.092Z,73.20
2019-01-18T19:50:01.013Z,73.20
2019-01-18T19:52:57.200Z,73.00
2019-01-18T19:55:57.845Z,72.50
2019-01-18T19:58:58.418Z,71.70
2019-01-18T20:01:42.305Z,72.20
2019-01-18T20:04:23.098Z,72.00
2019-01-18T20:10:42.586Z,70.80
2019-01-18T20:13:41.733Z,70.90
2019-01-18T20:16:44.087Z,70.90
2019-01-18T20:19:36.046Z,71.30
2019-01-18T20:22:27.151Z,71.50
2019-01-18T20:25:19.361Z,71.60
2019-01-18T20:28:20.210Z,70.90
2019-01-18T20:31:11.661Z,71.00
2019-01-18T20:34:18.367Z,71.70
2019-01-18T20:37:00.651Z,71.90
2019-01-18T20:39:44.395Z,70.00
2019-01-18T20:42:31.003Z,71.40
2019-01-18T20:45:37.218Z,72.10
2019-01-18T20:48:37.026Z,72.90
2019-01-18T20:51:23.958Z,73.10
2019-01-18T20:54:08.529Z,74.10
2019-01-18T20:56:58.273Z,73.20
2019-01-18T20:59:35.979Z,73.50
2019-01-18T21:02:34.674Z,73.70
2019-01-18T21:05:09.559Z,73.70
2019-01-18T21:07:53.409Z,74.10
2019-01-18T21:10:53.614Z,74.30
2019-01-18T21:13:53.673Z,73.50
2019-01-18T21:16:34.382Z,73.10
2019-01-18T21:19:36.320Z,71.50
2019-01-18T21:22:27.548Z,72.00
2019-01-18T21:25:34.404Z,72.10
2019-01-18T21:28:34.774Z,72.50
2019-01-18T21:31:24.274Z,72.40
2019-01-18T21:34:24.240Z,72.80
2019-01-18T21:37:05.487Z,72.80
2019-01-18T21:39:54.969Z,73.60
2019-01-18T21:42:38.636Z,73.70
2019-01-18T21:45:25.584Z,73.70
2019-01-18T21:48:19.996Z,73.30
2019-01-18T21:51:18.787Z,73.60
2019-01-18T21:54:12.905Z,73.50
2019-01-18T21:57:03.187Z,74.20
2019-01-18T21:59:46.679Z,75.20
2019-01-18T22:02:42.312Z,75.10
2019-01-18T22:05:36.511Z,75.10
2019-01-18T22:08:43.316Z,75.30
2019-01-18T22:11:38.671Z,76.00
2019-01-18T22:14:25.369Z,76.00
2019-01-18T22:17:02.770Z,76.60
2019-01-18T22:19:43.272Z,76.30
2019-01-18T22:22:27.459Z,76.40
2019-01-18T22:25:23.128Z,76.50
2019-01-18T22:28:27.021Z,76.70
2019-01-18T22:31:35.108Z,76.50
2019-01-18T22:34:19.029Z,76.30
2019-01-18T22:37:02.440Z,76.70
2019-01-18T22:39:48.977Z,76.50
2019-01-18T22:42:39.018Z,76.70
2019-01-18T22:45:47.556Z,76.90
2019-01-18T22:48:37.407Z,77.00
2019-01-18T22:51:53.223Z,77.10
2019-01-18T22:54:42.983Z,77.60
2019-01-18T22:57:20.482Z,77.80
2019-01-18T23:00:01.059Z,78.00
2019-01-18T23:03:00.056Z,78.50
2019-01-18T23:05:52.739Z,78.30
2019-01-18T23:09:02.654Z,79.20
2019-01-18T23:11:45.744Z,79.30
2019-01-18T23:14:29.427Z,79.30
2019-01-18T23:17:12.859Z,79.70
2019-01-18T23:19:55.581Z,79.90
2019-01-18T23:22:33.280Z,79.80
2019-01-18T23:25:10.892Z,80.00
2019-01-18T23:28:23.180Z,79.80
2019-01-18T23:31:12.759Z,80.50
2019-01-18T23:34:08.467Z,80.50
2019-01-18T23:36:46.087Z,80.30
2019-01-18T23:39:39.043Z,80.40
2019-01-18T23:42:16.713Z,81.20
2019-01-18T23:45:17.374Z,81.30
2019-01-18T23:47:52.269Z,81.80
2019-01-18T23:50:51.864Z,81.50
2019-01-18T23:53:47.859Z,81.60
2019-01-18T23:56:37.420Z,82.00
2019-01-18T23:59:17.936Z,82.30
